createdAt,value
2018-02-05T00:00:02.631Z,38.40
2018-02-05T00:01:02.617Z,37.80
2018-02-05T00:02:02.615Z,38.40
2018-02-05T00:03:02.600Z,37.90
2018-02-05T00:04:02.585Z,38.30
2018-02-05T00:05:02.581Z,37.30
2018-02-05T00:06:02.561Z,39.50
2018-02-05T00:07:02.549Z,38.80
2018-02-05T00:08:02.547Z,39.60
2018-02-05T00:09:02.541Z,37.40
2018-02-05T00:10:02.523Z,38.20
2018-02-05T00:11:02.510Z,37.10
2018-02-05T00:12:02.494Z,38.10
2018-02-05T00:13:02.484Z,36.50
2018-02-05T00:14:02.477Z,37.40
2018-02-05T00:15:02.484Z,37.40
2018-02-05T00:16:02.449Z,38.00
2018-02-05T00:17:02.444Z,34.90
2018-02-05T00:18:02.432Z,34.70
2018-02-05T00:19:02.422Z,36.30
2018-02-05T00:20:02.413Z,35.10
2018-02-05T00:21:02.404Z,38.00
2018-02-05T00:22:02.403Z,36.70
2018-02-05T00:23:02.377Z,35.50
2018-02-05T00:24:02.371Z,38.40
2018-02-05T00:25:02.356Z,35.20
2018-02-05T00:26:02.342Z,35.70
2018-02-05T00:27:02.331Z,36.90
2018-02-05T00:28:02.324Z,36.40
2018-02-05T00:29:02.309Z,37.30
2018-02-05T00:30:02.308Z,35.60
2018-02-05T00:31:02.294Z,36.30
2018-02-05T00:32:02.281Z,37.00
2018-02-05T00:33:02.275Z,36.30
2018-02-05T00:34:02.256Z,37.70
2018-02-05T00:35:02.249Z,36.10
2018-02-05T00:36:02.230Z,36.50
2018-02-05T00:37:02.219Z,36.40
2018-02-05T00:38:02.212Z,37.20
2018-02-05T00:39:02.206Z,37.10
2018-02-05T00:40:02.243Z,35.80
2018-02-05T00:41:02.177Z,37.70
2018-02-05T00:42:02.172Z,35.30
2018-02-05T00:43:02.259Z,38.80
2018-02-05T00:44:02.147Z,36.90
2018-02-05T00:45:02.144Z,38.00
2018-02-05T00:46:02.121Z,38.20
2018-02-05T00:47:02.113Z,38.60
2018-02-05T00:48:02.107Z,39.40
2018-02-05T00:49:02.091Z,36.40
2018-02-05T00:50:02.145Z,39.30
2018-02-05T00:51:02.070Z,37.20
2018-02-05T00:52:02.056Z,36.20
2018-02-05T00:53:02.044Z,37.40
2018-02-05T00:54:02.037Z,39.10
2018-02-05T00:55:02.027Z,36.00
2018-02-05T00:56:02.016Z,38.60
2018-02-05T00:57:01.998Z,36.00
2018-02-05T00:58:01.990Z,38.80
2018-02-05T00:59:02.050Z,38.80
2018-02-05T01:00:02.012Z,39.40
2018-02-05T01:01:02.061Z,39.10
2018-02-05T01:02:01.946Z,38.00
2018-02-05T01:03:01.933Z,37.00
2018-02-05T01:04:01.925Z,38.80
2018-02-05T01:05:01.917Z,39.00
2018-02-05T01:06:01.903Z,38.90
2018-02-05T01:07:01.887Z,40.30
2018-02-05T01:08:01.873Z,38.80
2018-02-05T01:09:01.877Z,40.10
2018-02-05T01:10:01.855Z,39.80
2018-02-05T01:11:01.850Z,40.80
2018-02-05T01:12:01.832Z,40.00
2018-02-05T01:13:01.819Z,38.40
2018-02-05T01:14:01.815Z,40.70
2018-02-05T01:15:01.802Z,39.30
2018-02-05T01:16:01.786Z,39.60
2018-02-05T01:17:01.775Z,38.70
2018-02-05T01:18:01.764Z,39.10
2018-02-05T01:19:01.750Z,39.30
2018-02-05T01:20:01.742Z,39.60
2018-02-05T01:21:01.735Z,39.30
2018-02-05T01:22:01.718Z,39.90
2018-02-05T01:23:01.709Z,40.80
2018-02-05T01:24:01.693Z,39.30
2018-02-05T01:25:01.681Z,39.80
2018-02-05T01:26:01.678Z,41.20
2018-02-05T01:27:01.664Z,40.70
2018-02-05T01:28:01.648Z,39.30
2018-02-05T01:29:01.639Z,37.90
2018-02-05T01:30:01.626Z,40.30
2018-02-05T01:31:01.729Z,40.20
2018-02-05T01:32:01.604Z,40.90
2018-02-05T01:33:01.592Z,39.90
2018-02-05T01:34:01.581Z,39.30
2018-02-05T01:35:01.567Z,40.70
2018-02-05T01:36:01.568Z,39.70
2018-02-05T01:37:01.550Z,41.00
2018-02-05T01:38:01.529Z,38.80
2018-02-05T01:39:01.518Z,38.80
2018-02-05T01:40:01.507Z,37.40
2018-02-05T01:41:01.496Z,38.30
2018-02-05T01:42:01.492Z,39.10
2018-02-05T01:43:01.477Z,37.10
2018-02-05T01:44:01.463Z,39.70
2018-02-05T01:45:01.447Z,38.70
2018-02-05T01:46:01.443Z,39.50
2018-02-05T01:47:01.434Z,39.90
2018-02-05T01:48:01.418Z,38.00
2018-02-05T01:49:01.406Z,38.60
2018-02-05T01:50:01.395Z,37.00
2018-02-05T01:51:01.380Z,39.20
2018-02-05T01:52:01.372Z,39.10
2018-02-05T01:53:01.363Z,34.70
2018-02-05T01:54:01.348Z,34.90
2018-02-05T01:55:01.332Z,36.60
2018-02-05T01:56:01.333Z,37.70
2018-02-05T01:57:01.310Z,36.40
2018-02-05T01:58:01.300Z,36.60
2018-02-05T01:59:01.294Z,36.30
2018-02-05T02:00:01.278Z,34.80
2018-02-05T02:01:01.264Z,36.20
2018-02-05T02:02:01.259Z,36.90
2018-02-05T02:03:01.246Z,35.90
2018-02-05T02:04:01.232Z,38.60
2018-02-05T02:05:01.225Z,38.90
2018-02-05T02:06:01.203Z,37.20
2018-02-05T02:07:01.190Z,35.30
2018-02-05T02:08:01.183Z,36.10
2018-02-05T02:09:01.170Z,36.90
2018-02-05T02:10:01.162Z,39.20
2018-02-05T02:11:01.146Z,39.20
2018-02-05T02:12:01.133Z,37.70
2018-02-05T02:13:01.123Z,37.60
2018-02-05T02:14:01.117Z,38.20
2018-02-05T02:15:01.107Z,35.90
2018-02-05T02:16:01.102Z,37.90
2018-02-05T02:17:01.075Z,36.30
2018-02-05T02:18:01.087Z,37.50
2018-02-05T02:19:01.056Z,37.70
2018-02-05T02:20:01.047Z,36.60
2018-02-05T02:21:01.037Z,39.20
2018-02-05T02:22:01.018Z,38.00
2018-02-05T02:23:01.010Z,37.70
2018-02-05T02:24:00.998Z,38.00
2018-02-05T02:25:00.987Z,36.40
2018-02-05T02:26:01.006Z,38.80
2018-02-05T02:27:00.966Z,38.70
2018-02-05T02:28:00.951Z,36.70
2018-02-05T02:29:00.939Z,36.70
2018-02-05T02:30:00.942Z,38.00
2018-02-05T02:31:00.917Z,36.60
2018-02-05T02:32:00.902Z,38.30
2018-02-05T02:33:00.891Z,36.40
2018-02-05T02:34:00.883Z,39.40
2018-02-05T02:35:00.876Z,37.10
2018-02-05T02:36:00.864Z,38.50
2018-02-05T02:37:00.851Z,38.60
2018-02-05T02:38:00.832Z,37.80
2018-02-05T02:39:00.820Z,37.80
2018-02-05T02:40:00.812Z,39.20
2018-02-05T02:41:00.796Z,39.60
2018-02-05T02:42:00.795Z,39.00
2018-02-05T02:43:00.778Z,38.20
2018-02-05T02:44:00.769Z,37.60
2018-02-05T02:45:00.759Z,39.00
2018-02-05T02:46:00.740Z,39.20
2018-02-05T02:47:00.733Z,38.30
2018-02-05T02:48:00.719Z,37.30
2018-02-05T02:49:00.708Z,38.20
2018-02-05T02:50:00.706Z,37.80
2018-02-05T02:51:00.696Z,38.40
2018-02-05T02:52:00.678Z,38.60
2018-02-05T02:53:00.660Z,40.60
2018-02-05T02:54:00.660Z,40.00
2018-02-05T02:55:00.658Z,38.60
2018-02-05T02:56:00.628Z,39.10
2018-02-05T02:57:00.613Z,39.20
2018-02-05T02:58:00.609Z,38.20
2018-02-05T02:59:00.594Z,38.00
2018-02-05T03:00:00.586Z,39.70
2018-02-05T03:01:00.574Z,39.20
2018-02-05T03:02:00.555Z,40.40
2018-02-05T03:03:00.544Z,40.20
2018-02-05T03:04:00.538Z,38.80
2018-02-05T03:05:00.526Z,39.30
2018-02-05T03:06:00.511Z,39.20
2018-02-05T03:07:00.498Z,39.30
2018-02-05T03:08:00.485Z,37.60
2018-02-05T03:09:00.473Z,39.70
2018-02-05T03:10:00.471Z,39.50
2018-02-05T03:11:00.455Z,40.00
2018-02-05T03:12:00.514Z,41.60
2018-02-05T03:13:00.429Z,39.50
2018-02-05T03:14:00.423Z,41.30
2018-02-05T03:15:00.412Z,40.00
2018-02-05T03:16:00.397Z,39.90
2018-02-05T03:17:00.386Z,41.10
2018-02-05T03:18:00.370Z,40.50
2018-02-05T03:19:00.361Z,40.20
2018-02-05T03:20:00.350Z,40.00
2018-02-05T03:21:00.338Z,42.60
2018-02-05T03:22:00.326Z,41.10
2018-02-05T03:23:00.310Z,40.60
2018-02-05T03:24:00.302Z,40.20
2018-02-05T03:25:00.291Z,41.00
2018-02-05T03:26:00.286Z,41.60
2018-02-05T03:27:00.273Z,41.20
2018-02-05T03:28:00.255Z,41.90
2018-02-05T03:29:00.243Z,41.50
2018-02-05T03:30:00.240Z,39.60
2018-02-05T03:31:00.232Z,41.60
2018-02-05T03:32:00.214Z,39.60
2018-02-05T03:33:00.199Z,40.90
2018-02-05T03:34:00.183Z,38.40
2018-02-05T03:35:00.179Z,41.40
2018-02-05T03:36:00.170Z,38.70
2018-02-05T03:37:00.157Z,40.80
2018-02-05T03:38:00.140Z,39.60
2018-02-05T03:39:00.130Z,38.50
2018-02-05T03:40:00.118Z,40.50
2018-02-05T03:41:00.108Z,39.00
2018-02-05T03:42:00.110Z,37.60
2018-02-05T03:43:00.083Z,38.10
2018-02-05T03:44:00.070Z,38.40
2018-02-05T03:45:00.088Z,39.70
2018-02-05T03:46:00.052Z,38.90
2018-02-05T03:47:00.040Z,37.70
2018-02-05T03:48:00.027Z,39.10
2018-02-05T03:49:00.019Z,37.00
2018-02-05T03:50:00.000Z,38.00
2018-02-05T03:50:59.990Z,36.40
2018-02-05T03:51:59.981Z,37.80
2018-02-05T03:52:59.966Z,37.20
2018-02-05T03:53:59.952Z,40.50
2018-02-05T03:54:59.941Z,40.00
2018-02-05T03:55:59.928Z,38.60
2018-02-05T03:56:59.919Z,39.50
2018-02-05T03:57:59.909Z,38.50
2018-02-05T03:58:59.905Z,39.20
2018-02-05T03:59:59.887Z,36.00
2018-02-05T04:00:59.965Z,36.90
2018-02-05T04:01:59.862Z,37.00
2018-02-05T04:02:59.846Z,39.60
2018-02-05T04:03:59.838Z,36.80
2018-02-05T04:04:59.824Z,35.50
2018-02-05T04:05:59.813Z,35.50
2018-02-05T04:06:59.797Z,33.10
2018-02-05T04:07:59.787Z,34.90
2018-02-05T04:08:59.788Z,35.20
2018-02-05T04:09:59.763Z,33.00
2018-02-05T04:10:59.754Z,33.10
2018-02-05T04:11:59.738Z,32.10
2018-02-05T04:12:59.729Z,32.30
2018-02-05T04:13:59.736Z,32.80
2018-02-05T04:14:59.708Z,33.10
2018-02-05T04:15:59.692Z,32.60
2018-02-05T04:16:59.679Z,32.40
2018-02-05T04:17:59.672Z,35.60
2018-02-05T04:18:59.660Z,32.50
2018-02-05T04:19:59.647Z,33.40
2018-02-05T04:20:59.637Z,28.70
2018-02-05T04:21:59.625Z,31.80
2018-02-05T04:22:59.609Z,35.90
2018-02-05T04:23:59.603Z,33.60
2018-02-05T04:24:59.591Z,33.80
2018-02-05T04:25:59.574Z,33.70
2018-02-05T04:26:59.563Z,34.60
2018-02-05T04:27:59.549Z,31.70
2018-02-05T04:28:59.542Z,32.50
2018-02-05T04:29:59.530Z,30.20
2018-02-05T04:30:59.582Z,32.00
2018-02-05T04:31:59.506Z,32.70
2018-02-05T04:32:59.498Z,32.50
2018-02-05T04:33:59.489Z,31.20
2018-02-05T04:34:59.475Z,29.40
2018-02-05T04:35:59.463Z,28.70
2018-02-05T04:36:59.476Z,29.00
2018-02-05T04:37:59.436Z,29.60
2018-02-05T04:38:59.424Z,29.60
2018-02-05T04:39:59.413Z,29.80
2018-02-05T04:40:59.402Z,29.00
2018-02-05T04:41:59.387Z,29.10
2018-02-05T04:42:59.375Z,28.10
2018-02-05T04:43:59.366Z,30.80
2018-02-05T04:44:59.353Z,29.70
2018-02-05T04:45:59.347Z,28.20
2018-02-05T04:46:59.336Z,29.90
2018-02-05T04:47:59.317Z,27.80
2018-02-05T04:48:59.304Z,30.20
2018-02-05T04:49:59.297Z,29.60
2018-02-05T04:50:59.286Z,30.40
2018-02-05T04:51:59.276Z,29.60
2018-02-05T04:52:59.264Z,29.20
2018-02-05T04:53:59.248Z,31.00
2018-02-05T04:54:59.239Z,28.20
2018-02-05T04:55:59.228Z,30.60
2018-02-05T04:56:59.216Z,30.80
2018-02-05T04:57:59.201Z,30.50
2018-02-05T04:58:59.190Z,28.30
2018-02-05T04:59:59.179Z,27.70
2018-02-05T05:00:59.222Z,31.40
2018-02-05T05:01:59.160Z,29.90
2018-02-05T05:02:59.150Z,29.90
2018-02-05T05:03:59.132Z,28.70
2018-02-05T05:04:59.123Z,29.20
2018-02-05T05:05:59.115Z,29.40
2018-02-05T05:06:59.203Z,31.00
2018-02-05T05:07:59.093Z,29.90
2018-02-05T05:08:59.079Z,29.90
2018-02-05T05:09:59.063Z,30.90
2018-02-05T05:10:59.050Z,29.60
2018-02-05T05:11:59.046Z,31.60
2018-02-05T05:12:59.085Z,31.00
2018-02-05T05:13:59.022Z,30.50
2018-02-05T05:14:59.007Z,30.40
2018-02-05T05:15:58.997Z,30.90
2018-02-05T05:16:58.982Z,31.50
2018-02-05T05:17:58.978Z,31.60
2018-02-05T05:18:58.970Z,31.40
2018-02-05T05:19:58.949Z,31.00
2018-02-05T05:20:58.938Z,31.50
2018-02-05T05:21:58.929Z,31.10
2018-02-05T05:22:58.922Z,33.10
2018-02-05T05:23:58.919Z,32.60
2018-02-05T05:24:58.897Z,32.00
2018-02-05T05:25:58.883Z,31.50
2018-02-05T05:26:58.875Z,33.30
2018-02-05T05:27:58.876Z,31.40
2018-02-05T05:28:58.850Z,31.20
2018-02-05T05:29:58.841Z,30.30
2018-02-05T05:30:59.028Z,33.10
2018-02-05T05:31:58.815Z,32.50
2018-02-05T05:32:58.812Z,31.90
2018-02-05T05:33:58.795Z,32.80
2018-02-05T05:34:58.785Z,33.10
2018-02-05T05:35:58.770Z,32.40
2018-02-05T05:36:58.761Z,32.70
2018-02-05T05:37:58.752Z,31.40
2018-02-05T05:38:58.744Z,32.50
2018-02-05T05:39:58.725Z,34.90
2018-02-05T05:40:58.714Z,31.60
2018-02-05T05:41:58.702Z,33.20
2018-02-05T05:42:58.688Z,32.70
2018-02-05T05:43:58.688Z,33.80
2018-02-05T05:44:58.677Z,32.30
2018-02-05T05:45:58.657Z,33.10
2018-02-05T05:46:58.646Z,32.00
2018-02-05T05:47:58.632Z,30.70
2018-02-05T05:48:58.624Z,33.90
2018-02-05T05:49:58.614Z,32.30
2018-02-05T05:50:58.603Z,35.10
2018-02-05T05:51:58.596Z,32.80
2018-02-05T05:52:58.582Z,32.80
2018-02-05T05:53:58.581Z,31.00
2018-02-05T05:54:58.563Z,30.00
2018-02-05T05:55:58.546Z,31.90
2018-02-05T05:56:58.535Z,31.00
2018-02-05T05:57:58.521Z,34.60
2018-02-05T05:58:58.514Z,31.80
2018-02-05T05:59:58.504Z,32.30
2018-02-05T06:00:58.496Z,34.50
2018-02-05T06:01:58.476Z,31.40
2018-02-05T06:02:58.467Z,33.40
2018-02-05T06:03:58.452Z,32.50
2018-02-05T06:04:58.442Z,32.40
2018-02-05T06:05:58.441Z,31.80
2018-02-05T06:06:58.431Z,34.20
2018-02-05T06:07:58.413Z,34.10
2018-02-05T06:08:58.397Z,34.00
2018-02-05T06:09:58.391Z,33.30
2018-02-05T06:10:58.380Z,35.00
2018-02-05T06:11:58.369Z,35.70
2018-02-05T06:12:58.361Z,35.50
2018-02-05T06:13:58.344Z,35.10
2018-02-05T06:14:58.332Z,37.10
2018-02-05T06:15:58.328Z,33.70
2018-02-05T06:16:58.315Z,34.00
2018-02-05T06:17:58.296Z,35.30
2018-02-05T06:18:58.286Z,36.50
2018-02-05T06:19:58.345Z,38.40
2018-02-05T06:20:58.264Z,35.10
2018-02-05T06:21:58.257Z,36.10
2018-02-05T06:22:58.247Z,35.20
2018-02-05T06:23:58.235Z,35.60
2018-02-05T06:24:58.220Z,36.40
2018-02-05T06:25:58.223Z,36.30
2018-02-05T06:26:58.206Z,36.90
2018-02-05T06:27:58.188Z,39.40
2018-02-05T06:28:58.179Z,35.80
2018-02-05T06:29:58.167Z,35.60
2018-02-05T06:30:58.161Z,37.70
2018-02-05T06:31:58.148Z,39.10
2018-02-05T06:32:58.137Z,37.70
2018-02-05T06:33:58.124Z,36.00
2018-02-05T06:34:58.114Z,39.80
2018-02-05T06:35:58.102Z,38.90
2018-02-05T06:36:58.088Z,38.90
2018-02-05T06:37:58.097Z,41.30
2018-02-05T06:38:58.069Z,38.90
2018-02-05T06:39:58.057Z,39.30
2018-02-05T06:40:58.043Z,38.30
2018-02-05T06:41:58.037Z,41.60
2018-02-05T06:42:58.027Z,39.40
2018-02-05T06:43:58.018Z,40.10
2018-02-05T06:44:58.006Z,41.30
2018-02-05T06:45:57.990Z,39.70
2018-02-05T06:46:57.982Z,40.70
2018-02-05T06:47:57.972Z,41.40
2018-02-05T06:48:57.959Z,41.90
2018-02-05T06:49:57.957Z,40.10
2018-02-05T06:50:57.940Z,38.80
2018-02-05T06:51:58.015Z,41.10
2018-02-05T06:52:57.913Z,38.90
2018-02-05T06:53:57.906Z,41.40
2018-02-05T06:54:57.907Z,42.70
2018-02-05T06:55:57.888Z,40.20
2018-02-05T06:56:57.876Z,37.60
2018-02-05T06:57:57.862Z,40.20
2018-02-05T06:58:57.847Z,43.10
2018-02-05T06:59:57.838Z,40.90
2018-02-05T07:00:58.132Z,39.30
2018-02-05T07:01:57.816Z,42.30
2018-02-05T07:02:57.812Z,40.20
2018-02-05T07:03:57.832Z,38.50
2018-02-05T07:04:57.782Z,40.80
2018-02-05T07:05:57.779Z,39.10
2018-02-05T07:06:57.765Z,40.60
2018-02-05T07:07:57.755Z,40.50
2018-02-05T07:08:57.744Z,41.10
2018-02-05T07:09:57.726Z,38.10
2018-02-05T07:10:57.724Z,42.10
2018-02-05T07:11:57.708Z,39.80
2018-02-05T07:12:57.706Z,43.50
2018-02-05T07:13:57.687Z,41.00
2018-02-05T07:14:57.673Z,37.50
2018-02-05T07:15:57.667Z,36.00
2018-02-05T07:16:57.657Z,38.00
2018-02-05T07:17:57.668Z,39.30
2018-02-05T07:18:57.635Z,39.40
2018-02-05T07:19:57.621Z,41.00
2018-02-05T07:20:57.666Z,35.60
2018-02-05T07:21:57.601Z,38.40
2018-02-05T07:22:57.594Z,39.70
2018-02-05T07:23:57.583Z,36.60
2018-02-05T07:24:57.569Z,38.60
2018-02-05T07:25:57.557Z,40.10
2018-02-05T07:26:57.543Z,39.10
2018-02-05T07:27:57.538Z,36.90
2018-02-05T07:28:57.524Z,36.10
2018-02-05T07:29:57.510Z,36.10
2018-02-05T07:30:57.498Z,36.70
2018-02-05T07:31:57.484Z,37.40
2018-02-05T07:32:57.476Z,39.80
2018-02-05T07:33:57.466Z,37.90
2018-02-05T07:34:57.459Z,38.20
2018-02-05T07:35:57.542Z,34.80
2018-02-05T07:36:57.430Z,31.40
2018-02-05T07:37:57.425Z,37.40
2018-02-05T07:38:57.412Z,32.90
2018-02-05T07:39:57.398Z,38.50
2018-02-05T07:40:57.388Z,36.40
2018-02-05T07:41:57.383Z,39.70
2018-02-05T07:42:57.365Z,35.70
2018-02-05T07:43:57.363Z,35.00
2018-02-05T07:44:57.346Z,35.50
2018-02-05T07:45:57.328Z,35.40
2018-02-05T07:46:57.320Z,35.60
2018-02-05T07:47:57.307Z,36.70
2018-02-05T07:48:57.300Z,37.40
2018-02-05T07:49:57.305Z,36.70
2018-02-05T07:50:57.279Z,35.00
2018-02-05T07:51:57.269Z,34.20
2018-02-05T07:52:57.251Z,36.00
2018-02-05T07:53:57.252Z,35.10
2018-02-05T07:54:57.234Z,32.20
2018-02-05T07:55:57.230Z,32.90
2018-02-05T07:56:57.214Z,35.50
2018-02-05T07:57:57.199Z,34.00
2018-02-05T07:58:57.188Z,35.60
2018-02-05T07:59:57.178Z,33.70
2018-02-05T08:00:57.473Z,33.50
2018-02-05T08:01:57.154Z,33.70
2018-02-05T08:02:57.145Z,36.30
2018-02-05T08:03:57.132Z,33.10
2018-02-05T08:04:57.123Z,32.50
2018-02-05T08:05:57.117Z,32.90
2018-02-05T08:06:57.180Z,30.60
2018-02-05T08:07:57.103Z,34.40
2018-02-05T08:08:57.078Z,32.90
2018-02-05T08:09:57.070Z,31.70
2018-02-05T08:10:57.065Z,32.70
2018-02-05T08:11:57.052Z,31.20
2018-02-05T08:12:57.055Z,34.20
2018-02-05T08:13:57.031Z,28.60
2018-02-05T08:14:57.020Z,31.80
2018-02-05T08:15:57.010Z,31.80
2018-02-05T08:16:56.998Z,30.20
2018-02-05T08:17:56.990Z,32.80
2018-02-05T08:18:56.992Z,32.50
2018-02-05T08:19:56.979Z,32.50
2018-02-05T08:20:56.956Z,31.20
2018-02-05T08:21:56.943Z,32.00
2018-02-05T08:22:56.932Z,32.70
2018-02-05T08:23:56.920Z,32.60
2018-02-05T08:24:57.072Z,34.00
2018-02-05T08:25:56.904Z,29.50
2018-02-05T08:26:56.891Z,33.40
2018-02-05T08:27:56.878Z,31.50
2018-02-05T08:28:56.867Z,30.40
2018-02-05T08:29:56.860Z,30.80
2018-02-05T08:30:56.847Z,31.20
2018-02-05T08:31:56.834Z,32.70
2018-02-05T08:32:56.830Z,30.20
2018-02-05T08:33:56.813Z,29.20
2018-02-05T08:34:56.800Z,33.40
2018-02-05T08:35:56.789Z,30.40
2018-02-05T08:36:56.787Z,32.60
2018-02-05T08:37:56.775Z,31.70
2018-02-05T08:38:56.853Z,32.30
2018-02-05T08:39:56.748Z,31.50
2018-02-05T08:40:56.739Z,29.60
2018-02-05T08:41:56.727Z,32.00
2018-02-05T08:42:56.718Z,28.20
2018-02-05T08:43:56.721Z,35.00
2018-02-05T08:44:56.695Z,31.60
2018-02-05T08:45:56.682Z,31.10
2018-02-05T08:46:56.674Z,33.50
2018-02-05T08:47:56.666Z,34.00
2018-02-05T08:48:56.653Z,34.90
2018-02-05T08:49:56.637Z,32.50
2018-02-05T08:50:56.628Z,34.40
2018-02-05T08:51:56.615Z,34.30
2018-02-05T08:52:56.604Z,33.70
2018-02-05T08:53:56.612Z,32.00
2018-02-05T08:54:56.588Z,32.70
2018-02-05T08:55:56.573Z,34.20
2018-02-05T08:56:56.577Z,31.50
2018-02-05T08:57:56.557Z,35.80
2018-02-05T08:58:56.547Z,35.10
2018-02-05T08:59:56.542Z,36.20
2018-02-05T09:00:56.524Z,32.10
2018-02-05T09:01:56.507Z,32.80
2018-02-05T09:02:56.497Z,33.30
2018-02-05T09:03:56.487Z,33.70
2018-02-05T09:04:56.476Z,34.20
2018-02-05T09:05:56.469Z,31.50
2018-02-05T09:06:56.508Z,32.30
2018-02-05T09:07:56.450Z,34.70
2018-02-05T09:08:56.439Z,33.90
2018-02-05T09:09:56.425Z,32.70
2018-02-05T09:10:56.416Z,33.70
2018-02-05T09:11:56.407Z,32.30
2018-02-05T09:12:56.396Z,35.10
2018-02-05T09:13:56.465Z,31.10
2018-02-05T09:14:56.372Z,34.60
2018-02-05T09:15:56.363Z,34.60
2018-02-05T09:16:56.352Z,35.30
2018-02-05T09:17:56.347Z,35.40
2018-02-05T09:18:56.339Z,33.20
2018-02-05T09:19:56.329Z,32.70
2018-02-05T09:20:56.310Z,36.60
2018-02-05T09:21:56.304Z,31.70
2018-02-05T09:22:56.293Z,34.40
2018-02-05T09:23:56.284Z,32.60
2018-02-05T09:24:56.420Z,34.30
2018-02-05T09:25:56.256Z,33.40
2018-02-05T09:26:56.245Z,33.10
2018-02-05T09:27:56.252Z,35.00
2018-02-05T09:28:56.230Z,33.40
2018-02-05T09:29:56.217Z,35.10
2018-02-05T09:30:56.560Z,33.20
2018-02-05T09:31:56.193Z,33.10
2018-02-05T09:32:56.182Z,35.90
2018-02-05T09:33:56.203Z,34.90
2018-02-05T09:34:56.175Z,35.30
2018-02-05T09:35:56.150Z,36.60
2018-02-05T09:36:56.140Z,35.90
2018-02-05T09:37:56.139Z,36.70
2018-02-05T09:38:56.123Z,34.90
2018-02-05T09:39:56.115Z,34.40
2018-02-05T09:40:56.103Z,32.50
2018-02-05T09:41:56.089Z,32.50
2018-02-05T09:42:56.082Z,35.70
2018-02-05T09:43:56.076Z,31.40
2018-02-05T09:44:56.060Z,33.60
2018-02-05T09:45:56.147Z,33.50
2018-02-05T09:46:56.044Z,33.50
2018-02-05T09:47:56.027Z,33.90
2018-02-05T09:48:56.318Z,32.00
2018-02-05T09:49:56.011Z,35.50
2018-02-05T09:50:56.000Z,36.20
2018-02-05T09:51:55.989Z,36.20
2018-02-05T09:52:55.978Z,32.70
2018-02-05T09:53:55.970Z,34.80
2018-02-05T09:54:56.261Z,36.40
2018-02-05T09:55:55.958Z,34.80
2018-02-05T09:56:55.936Z,35.20
2018-02-05T09:57:55.926Z,33.40
2018-02-05T09:58:55.912Z,34.90
2018-02-05T09:59:55.910Z,34.30
2018-02-05T10:00:55.896Z,35.90
2018-02-05T10:01:55.883Z,37.80
2018-02-05T10:02:55.874Z,35.60
2018-02-05T10:03:55.863Z,35.40
2018-02-05T10:04:55.849Z,32.00
2018-02-05T10:05:55.848Z,35.60
2018-02-05T10:06:55.841Z,34.30
2018-02-05T10:07:55.820Z,35.50
2018-02-05T10:08:55.812Z,37.00
2018-02-05T10:09:55.808Z,33.30
2018-02-05T10:10:55.798Z,33.60
2018-02-05T10:11:55.786Z,35.30
2018-02-05T10:12:55.851Z,36.50
2018-02-05T10:13:55.763Z,36.80
2018-02-05T10:14:55.750Z,36.80
2018-02-05T10:15:55.744Z,34.50
2018-02-05T10:16:55.736Z,35.50
2018-02-05T10:17:55.719Z,35.00
2018-02-05T10:18:56.016Z,34.10
2018-02-05T10:19:55.697Z,34.30
2018-02-05T10:20:55.693Z,36.70
2018-02-05T10:21:55.684Z,35.70
2018-02-05T10:22:55.677Z,33.80
2018-02-05T10:23:55.655Z,34.50
2018-02-05T10:24:55.946Z,30.30
2018-02-05T10:25:55.640Z,36.60
2018-02-05T10:26:55.629Z,33.60
2018-02-05T10:27:55.624Z,34.90
2018-02-05T10:28:55.609Z,31.90
2018-02-05T10:29:55.596Z,34.80
2018-02-05T10:30:55.590Z,34.50
2018-02-05T10:31:55.621Z,36.90
2018-02-05T10:32:55.571Z,35.40
2018-02-05T10:33:55.555Z,35.70
2018-02-05T10:34:55.547Z,32.80
2018-02-05T10:35:55.535Z,35.60
2018-02-05T10:36:55.523Z,33.10
2018-02-05T10:37:55.515Z,34.50
2018-02-05T10:38:55.512Z,33.40
2018-02-05T10:39:55.493Z,34.50
2018-02-05T10:40:55.483Z,37.20
2018-02-05T10:41:55.475Z,36.00
2018-02-05T10:42:55.866Z,34.70
2018-02-05T10:43:55.455Z,33.10
2018-02-05T10:44:55.510Z,34.80
2018-02-05T10:45:55.432Z,35.50
2018-02-05T10:46:55.415Z,33.30
2018-02-05T10:47:55.411Z,34.10
2018-02-05T10:48:55.703Z,30.80
2018-02-05T10:49:55.385Z,35.50
2018-02-05T10:50:55.379Z,34.80
2018-02-05T10:51:55.361Z,35.40
2018-02-05T10:52:55.354Z,34.90
2018-02-05T10:53:55.344Z,34.50
2018-02-05T10:54:55.338Z,33.80
2018-02-05T10:55:55.319Z,34.00
2018-02-05T10:56:55.309Z,37.10
2018-02-05T10:57:55.303Z,31.30
2018-02-05T10:58:55.293Z,33.00
2018-02-05T10:59:55.283Z,34.20
2018-02-05T11:00:55.277Z,35.70
2018-02-05T11:01:55.260Z,33.40
2018-02-05T11:02:55.249Z,33.80
2018-02-05T11:03:55.245Z,35.50
2018-02-05T11:04:55.233Z,32.80
2018-02-05T11:05:55.232Z,32.60
2018-02-05T11:06:55.205Z,34.00
2018-02-05T11:07:55.196Z,34.10
2018-02-05T11:08:55.190Z,33.70
2018-02-05T11:09:55.181Z,33.60
2018-02-05T11:10:55.177Z,34.70
2018-02-05T11:11:55.161Z,32.80
2018-02-05T11:12:55.399Z,31.30
2018-02-05T11:13:55.137Z,33.70
2018-02-05T11:14:55.130Z,33.80
2018-02-05T11:15:55.114Z,34.30
2018-02-05T11:16:55.107Z,31.50
2018-02-05T11:17:55.104Z,34.20
2018-02-05T11:18:55.091Z,31.20
2018-02-05T11:19:55.080Z,30.80
2018-02-05T11:20:55.071Z,29.90
2018-02-05T11:21:55.067Z,27.10
2018-02-05T11:22:55.056Z,32.60
2018-02-05T11:23:55.038Z,32.10
2018-02-05T11:24:55.079Z,30.60
2018-02-05T11:25:55.019Z,32.80
2018-02-05T11:26:55.072Z,31.90
2018-02-05T11:27:55.003Z,31.30
2018-02-05T11:28:54.991Z,29.40
2018-02-05T11:29:54.973Z,31.40
2018-02-05T11:30:55.264Z,32.30
2018-02-05T11:31:54.953Z,31.80
2018-02-05T11:32:54.949Z,31.20
2018-02-05T11:33:54.937Z,30.00
2018-02-05T11:34:54.932Z,29.50
2018-02-05T11:35:54.917Z,30.70
2018-02-05T11:36:55.051Z,32.70
2018-02-05T11:37:54.896Z,31.50
2018-02-05T11:38:54.886Z,33.30
2018-02-05T11:39:54.879Z,30.60
2018-02-05T11:40:54.870Z,30.40
2018-02-05T11:41:54.854Z,29.20
2018-02-05T11:42:54.846Z,28.50
2018-02-05T11:43:54.836Z,32.00
2018-02-05T11:44:54.826Z,28.90
2018-02-05T11:45:54.816Z,24.60
2018-02-05T11:46:54.804Z,30.60
2018-02-05T11:47:54.793Z,28.40
2018-02-05T11:48:54.779Z,27.90
2018-02-05T11:49:54.774Z,29.20
2018-02-05T11:50:54.770Z,25.50
2018-02-05T11:51:54.751Z,28.60
2018-02-05T11:52:54.741Z,26.20
2018-02-05T11:53:54.735Z,27.40
2018-02-05T11:54:54.729Z,28.40
2018-02-05T11:55:54.716Z,28.20
2018-02-05T11:56:54.701Z,29.20
2018-02-05T11:57:54.694Z,28.20
2018-02-05T11:58:54.750Z,30.40
2018-02-05T11:59:54.677Z,25.30
2018-02-05T12:00:54.681Z,27.60
2018-02-05T12:01:54.654Z,26.60
2018-02-05T12:02:54.638Z,28.30
2018-02-05T12:03:54.629Z,26.80
2018-02-05T12:04:54.623Z,25.80
2018-02-05T12:05:54.613Z,26.60
2018-02-05T12:06:54.904Z,27.40
2018-02-05T12:07:54.586Z,24.30
2018-02-05T12:08:54.583Z,27.70
2018-02-05T12:09:54.574Z,25.90
2018-02-05T12:10:54.566Z,25.00
2018-02-05T12:11:54.550Z,25.50
2018-02-05T12:12:54.843Z,27.20
2018-02-05T12:13:54.527Z,21.10
2018-02-05T12:14:54.519Z,26.70
2018-02-05T12:15:54.506Z,24.30
2018-02-05T12:16:54.498Z,26.00
2018-02-05T12:17:54.486Z,22.70
2018-02-05T12:18:54.472Z,21.20
2018-02-05T12:19:54.464Z,24.10
2018-02-05T12:20:54.453Z,25.40
2018-02-05T12:21:54.452Z,25.20
2018-02-05T12:22:54.438Z,24.90
2018-02-05T12:23:54.423Z,24.50
2018-02-05T12:24:54.410Z,23.60
2018-02-05T12:25:54.414Z,24.40
2018-02-05T12:26:54.399Z,21.60
2018-02-05T12:27:54.392Z,23.80
2018-02-05T12:28:54.373Z,22.40
2018-02-05T12:29:54.359Z,23.10
2018-02-05T12:30:54.349Z,23.10
2018-02-05T12:31:54.343Z,22.60
2018-02-05T12:32:54.333Z,26.10
2018-02-05T12:33:54.326Z,23.80
2018-02-05T12:34:54.324Z,23.60
2018-02-05T12:35:54.298Z,19.50
2018-02-05T12:36:54.592Z,22.20
2018-02-05T12:37:54.278Z,24.30
2018-02-05T12:38:54.269Z,24.40
2018-02-05T12:39:54.266Z,23.90
2018-02-05T12:40:54.244Z,22.90
2018-02-05T12:41:54.242Z,24.20
2018-02-05T12:42:54.531Z,24.30
2018-02-05T12:43:54.214Z,23.10
2018-02-05T12:44:54.235Z,23.80
2018-02-05T12:45:54.198Z,23.40
2018-02-05T12:46:54.183Z,26.20
2018-02-05T12:47:54.266Z,23.10
2018-02-05T12:48:54.165Z,23.10
2018-02-05T12:49:54.151Z,23.70
2018-02-05T12:50:54.145Z,24.90
2018-02-05T12:51:54.133Z,21.60